Time;durP1;ratioP1;P1;durP2;ratioP2;P2;SDS_P1;SDS_P2;PMS_P1;PMS_P2;Temp;Humidity;BMP_temperature;BMP_pressure;BME280_temperature;BME280_humidity;BME280_pressure;Samples;Min_cycle;Max_cycle;Signal;HPM_P1;HPM_P2
2022/09/12 00:00:07;;;;;;;6.43;4.88;;;14.70;99.90;;;;;;6250773;28;20045;-80
2022/09/12 00:03:10;;;;;;;8.07;4.80;;;14.70;99.90;;;;;;6241187;28;20069;-80
2022/09/12 00:06:16;;;;;;;12.20;5.22;;;14.70;99.90;;;;;;6225481;28;20526;-79
2022/09/12 00:09:17;;;;;;;7.68;5.22;;;14.70;99.90;;;;;;6224997;28;20092;-80
2022/09/12 00:12:19;;;;;;;13.40;5.18;;;14.60;99.90;;;;;;6250004;28;20049;-79
2022/09/12 00:15:21;;;;;;;6.55;5.22;;;14.60;99.90;;;;;;6246545;28;20041;-79
2022/09/12 00:18:24;;;;;;;13.30;5.72;;;14.60;99.90;;;;;;6248446;28;20052;-78
2022/09/12 00:21:25;;;;;;;7.07;4.80;;;14.60;99.90;;;;;;6249656;28;20053;-80
2022/09/12 00:24:27;;;;;;;12.32;5.45;;;14.60;99.90;;;;;;6249565;28;20412;-79
2022/09/12 00:27:29;;;;;;;7.82;5.30;;;14.50;99.90;;;;;;6249428;28;20049;-79
2022/09/12 00:30:31;;;;;;;7.50;4.68;;;14.50;99.90;;;;;;6249577;28;20499;-79
2022/09/12 00:33:34;;;;;;;12.52;4.90;;;14.50;99.90;;;;;;6249146;28;20045;-79
2022/09/12 00:36:36;;;;;;;7.70;4.75;;;14.40;99.90;;;;;;6249571;28;20075;-79
2022/09/12 00:39:38;;;;;;;8.00;4.60;;;14.40;99.90;;;;;;6249412;28;20440;-79
2022/09/12 00:42:39;;;;;;;7.70;4.75;;;14.30;99.90;;;;;;6248530;28;20045;-79
2022/09/12 00:45:42;;;;;;;9.10;4.55;;;14.30;99.90;;;;;;6249037;28;20053;-79
2022/09/12 00:48:50;;;;;;;7.65;5.05;;;14.30;99.90;;;;;;6248918;28;20041;-79
2022/09/12 00:51:55;;;;;;;10.38;5.03;;;14.30;99.90;;;;;;6249435;28;20057;-80
2022/09/12 00:55:02;;;;;;;9.10;4.45;;;14.20;99.90;;;;;;6249249;28;20056;-79
2022/09/12 00:58:09;;;;;;;5.88;3.92;;;14.10;99.90;;;;;;6248856;28;20507;-79
2022/09/12 01:01:11;;;;;;;8.05;4.63;;;14.00;99.90;;;;;;6247778;28;20056;-79
2022/09/12 01:04:14;;;;;;;8.48;4.95;;;14.00;99.90;;;;;;6245570;28;20064;-79
2022/09/12 01:07:16;;;;;;;11.20;4.95;;;14.00;99.90;;;;;;6223656;28;20495;-80
2022/09/12 01:10:19;;;;;;;9.63;4.68;;;14.00;99.90;;;;;;6223994;28;20049;-79
2022/09/12 01:13:21;;;;;;;9.05;5.05;;;14.00;99.90;;;;;;6228456;28;20041;-79
2022/09/12 01:16:22;;;;;;;8.80;5.75;;;14.00;99.90;;;;;;6248360;28;20414;-79
2022/09/12 01:20:07;;;;;;;14.68;5.53;;;14.00;99.90;;;;;;6248441;28;20458;-79
2022/09/12 01:23:37;;;;;;;12.35;5.22;;;13.90;99.90;;;;;;6248151;28;20676;-79
2022/09/12 01:27:10;;;;;;;8.75;5.10;;;13.90;99.90;;;;;;6248055;28;20446;-79
2022/09/12 01:30:44;;;;;;;13.73;5.78;;;13.90;99.90;;;;;;6248048;28;20053;-79
2022/09/12 01:34:03;;;;;;;13.50;5.30;;;13.90;99.90;;;;;;6247839;28;20045;-79
2022/09/12 01:37:12;;;;;;;7.40;5.72;;;13.80;99.90;;;;;;6248041;28;20495;-79
2022/09/12 01:40:22;;;;;;;12.75;5.35;;;13.80;99.90;;;;;;6248360;28;20049;-78
2022/09/12 01:43:33;;;;;;;9.65;5.90;;;13.80;99.90;;;;;;6248608;28;20124;-79
2022/09/12 01:46:43;;;;;;;15.95;5.72;;;13.70;99.90;;;;;;6247970;28;20049;-79
2022/09/12 01:49:55;;;;;;;6.60;4.90;;;13.70;99.90;;;;;;6247070;28;20045;-78
2022/09/12 01:52:59;;;;;;;9.82;5.35;;;13.70;99.90;;;;;;6246616;28;20052;-79
2022/09/12 01:56:06;;;;;;;24.40;10.43;;;13.60;99.90;;;;;;6248322;28;20053;-79
2022/09/12 01:59:13;;;;;;;13.85;5.30;;;13.60;99.90;;;;;;6248649;28;20053;-79
2022/09/12 02:02:18;;;;;;;14.75;4.80;;;13.60;99.90;;;;;;6249706;28;20418;-80
2022/09/12 02:05:27;;;;;;;8.73;5.30;;;13.60;99.90;;;;;;6242374;28;20053;-79
2022/09/12 02:08:33;;;;;;;9.18;4.78;;;13.50;99.90;;;;;;6223993;28;20073;-79
2022/09/12 02:11:38;;;;;;;8.60;4.20;;;13.50;99.90;;;;;;6223808;28;20046;-80
2022/09/12 02:14:45;;;;;;;10.98;5.30;;;13.50;99.90;;;;;;6223301;28;20542;-79
2022/09/12 02:17:50;;;;;;;12.82;5.10;;;13.50;99.90;;;;;;6224257;28;20046;-80
2022/09/12 02:20:54;;;;;;;7.47;5.05;;;13.50;99.90;;;;;;6224281;28;20057;-80
2022/09/12 02:24:00;;;;;;;9.32;5.00;;;13.50;99.90;;;;;;6224363;28;20045;-79
2022/09/12 02:27:05;;;;;;;14.13;5.05;;;13.40;99.90;;;;;;6225489;28;20212;-79
2022/09/12 02:30:09;;;;;;;9.75;5.57;;;13.40;99.90;;;;;;6228573;28;20050;-79
2022/09/12 02:33:20;;;;;;;12.48;5.63;;;13.30;99.90;;;;;;6228435;28;20046;-79
2022/09/12 02:36:34;;;;;;;9.90;5.97;;;13.30;99.90;;;;;;6228655;28;20058;-79
2022/09/12 02:39:36;;;;;;;14.32;5.80;;;13.30;99.90;;;;;;6228690;28;20434;-80
2022/09/12 02:42:38;;;;;;;14.95;5.57;;;13.30;99.90;;;;;;6249622;28;20050;-80
2022/09/12 02:45:40;;;;;;;10.73;5.75;;;13.30;99.90;;;;;;6253174;28;20050;-79
2022/09/12 02:48:43;;;;;;;13.80;6.15;;;13.30;99.90;;;;;;6251825;28;20233;-79
2022/09/12 02:51:47;;;;;;;9.05;6.03;;;13.30;99.90;;;;;;6253647;28;20046;-80
2022/09/12 02:54:50;;;;;;;14.45;5.28;;;13.20;99.90;;;;;;6253358;28;20042;-80
2022/09/12 02:57:51;;;;;;;15.27;5.60;;;13.10;99.90;;;;;;6253028;28;20048;-80
2022/09/12 03:00:59;;;;;;;12.38;5.60;;;13.20;99.90;;;;;;6252862;28;20065;-80
2022/09/12 03:04:18;;;;;;;16.13;5.45;;;13.10;99.90;;;;;;6254439;28;20049;-80
2022/09/12 03:07:36;;;;;;;12.00;5.13;;;13.10;99.90;;;;;;6252415;28;20053;-79
2022/09/12 03:10:49;;;;;;;10.18;5.03;;;13.00;99.90;;;;;;6253547;28;20407;-79
2022/09/12 03:14:05;;;;;;;8.70;4.72;;;13.00;99.90;;;;;;6253645;28;20057;-79
2022/09/12 03:17:18;;;;;;;11.27;5.60;;;13.00;99.90;;;;;;6252872;28;20048;-79
2022/09/12 03:20:30;;;;;;;8.82;5.40;;;12.90;99.90;;;;;;6254132;28;20049;-78
2022/09/12 03:23:39;;;;;;;16.02;5.00;;;12.90;99.90;;;;;;6254649;28;20046;-78
2022/09/12 03:26:44;;;;;;;10.25;5.57;;;12.90;99.90;;;;;;6253805;28;20053;-79
2022/09/12 03:29:47;;;;;;;7.18;4.80;;;12.80;99.90;;;;;;6257002;28;20053;-78
2022/09/12 03:32:51;;;;;;;10.05;5.70;;;12.80;99.90;;;;;;6253509;28;20049;-79
2022/09/12 03:35:53;;;;;;;7.47;5.15;;;12.80;99.90;;;;;;6252734;28;20050;-79
2022/09/12 03:38:56;;;;;;;8.82;6.13;;;12.70;99.90;;;;;;6251370;28;20467;-79
2022/09/12 03:41:58;;;;;;;12.63;5.18;;;12.70;99.90;;;;;;6252484;28;20041;-78
2022/09/12 03:45:00;;;;;;;12.00;5.70;;;12.70;99.90;;;;;;6252952;28;20048;-79
2022/09/12 03:48:01;;;;;;;10.02;6.25;;;12.60;99.90;;;;;;6252160;28;20056;-80
2022/09/12 03:51:05;;;;;;;10.48;5.70;;;12.70;99.90;;;;;;6252426;28;20049;-80
2022/09/12 03:54:09;;;;;;;11.45;5.38;;;12.60;99.90;;;;;;6251983;28;20041;-79
2022/09/12 03:57:11;;;;;;;9.75;5.43;;;12.60;99.90;;;;;;6252448;28;20038;-79
2022/09/12 04:00:13;;;;;;;10.57;4.53;;;12.60;99.90;;;;;;6252475;28;20064;-78
2022/09/12 04:03:15;;;;;;;10.20;5.68;;;12.50;99.90;;;;;;6251887;28;20515;-79
2022/09/12 04:06:19;;;;;;;9.73;5.28;;;12.50;99.90;;;;;;6251272;28;20057;-79
2022/09/12 04:09:23;;;;;;;9.52;5.43;;;12.50;99.90;;;;;;6251108;28;20060;-78
2022/09/12 04:12:24;;;;;;;6.55;4.85;;;12.40;99.90;;;;;;6252578;28;20046;-79
2022/09/12 04:15:26;;;;;;;9.43;4.45;;;12.50;99.90;;;;;;6252647;28;20510;-79
2022/09/12 04:18:28;;;;;;;12.23;5.25;;;12.40;99.90;;;;;;6252072;28;20053;-78
2022/09/12 04:21:30;;;;;;;11.27;5.82;;;12.40;99.90;;;;;;6251541;28;20045;-78
2022/09/12 04:24:33;;;;;;;13.25;5.63;;;12.40;99.90;;;;;;6251488;28;20056;-80
2022/09/12 04:27:34;;;;;;;13.63;6.00;;;12.40;99.90;;;;;;6252332;28;20526;-79
2022/09/12 04:30:36;;;;;;;9.20;5.75;;;12.40;99.90;;;;;;6251845;28;20048;-80
2022/09/12 04:33:38;;;;;;;9.60;5.72;;;12.30;99.90;;;;;;6251502;28;20411;-80
2022/09/12 04:36:40;;;;;;;16.50;5.90;;;12.30;99.90;;;;;;6252609;28;20052;-80
2022/09/12 04:39:43;;;;;;;7.43;5.03;;;12.40;99.90;;;;;;6253060;28;20049;-80
2022/09/12 04:42:45;;;;;;;10.73;5.20;;;12.30;99.90;;;;;;6252608;28;20052;-80
2022/09/12 04:45:46;;;;;;;7.88;5.43;;;12.30;99.90;;;;;;6251437;28;20056;-80
2022/09/12 04:48:49;;;;;;;15.52;6.97;;;12.30;99.90;;;;;;6252204;28;20042;-80
2022/09/12 04:51:53;;;;;;;14.10;6.40;;;12.30;99.90;;;;;;6252019;28;20046;-79
2022/09/12 04:54:56;;;;;;;8.30;5.78;;;12.30;99.90;;;;;;6251025;28;20041;-79
2022/09/12 04:57:58;;;;;;;17.55;6.05;;;12.30;99.90;;;;;;6250503;28;20049;-82
2022/09/12 05:01:05;;;;;;;10.70;5.63;;;12.30;99.90;;;;;;6250505;28;20044;-80
2022/09/12 05:04:07;;;;;;;13.45;7.13;;;12.30;99.90;;;;;;6251629;28;20056;-80
2022/09/12 05:07:08;;;;;;;18.17;8.00;;;12.30;99.90;;;;;;6246428;28;20054;-81
2022/09/12 05:10:12;;;;;;;11.15;6.28;;;12.40;99.90;;;;;;6246994;28;20518;-81
2022/09/12 05:13:13;;;;;;;12.18;6.20;;;12.40;99.90;;;;;;6250242;28;20049;-79
2022/09/12 05:16:17;;;;;;;12.90;6.15;;;12.40;99.90;;;;;;6251020;28;20046;-79
2022/09/12 05:19:19;;;;;;;11.68;6.43;;;12.50;99.90;;;;;;6250600;28;20056;-79
2022/09/12 05:22:20;;;;;;;19.90;6.53;;;12.50;99.90;;;;;;6250906;28;20053;-78
2022/09/12 05:25:23;;;;;;;14.70;7.20;;;12.60;99.90;;;;;;6250745;28;20052;-79
2022/09/12 05:28:29;;;;;;;11.60;7.63;;;12.70;99.90;;;;;;6250261;28;20049;-79
2022/09/12 05:31:31;;;;;;;19.58;8.43;;;12.80;99.90;;;;;;6251084;28;20041;-79
2022/09/12 05:34:32;;;;;;;21.45;7.80;;;12.80;99.90;;;;;;6250605;28;20554;-80
2022/09/12 05:37:34;;;;;;;10.50;6.32;;;12.90;99.90;;;;;;6250639;28;20510;-79
2022/09/12 05:40:37;;;;;;;10.48;5.50;;;13.10;99.90;;;;;;6250398;28;20052;-79
2022/09/12 05:43:41;;;;;;;10.00;5.28;;;13.20;99.90;;;;;;6249953;28;20201;-79
2022/09/12 05:46:44;;;;;;;10.27;5.40;;;13.30;99.90;;;;;;6254093;28;20055;-79
2022/09/12 05:49:46;;;;;;;6.18;5.00;;;13.50;99.90;;;;;;6257028;28;20045;-79
2022/09/12 05:52:49;;;;;;;11.82;6.03;;;13.70;99.90;;;;;;6254145;28;20124;-80
2022/09/12 05:56:02;;;;;;;9.63;5.35;;;13.90;99.90;;;;;;6256398;28;20053;-80
2022/09/12 05:59:05;;;;;;;9.82;5.13;;;14.10;99.90;;;;;;6255012;28;20057;-80
2022/09/12 06:02:08;;;;;;;9.93;5.63;;;14.20;99.90;;;;;;6257069;28;20049;-79
2022/09/12 06:05:10;;;;;;;18.23;5.88;;;14.40;99.90;;;;;;6259609;28;20051;-81
2022/09/12 06:08:12;;;;;;;14.65;6.15;;;14.50;99.90;;;;;;6256345;28;20049;-81
2022/09/12 06:11:16;;;;;;;15.38;5.50;;;14.80;99.90;;;;;;6249640;28;20061;-81
2022/09/12 06:14:19;;;;;;;18.42;8.57;;;15.20;99.90;;;;;;6260443;28;20037;-82
2022/09/12 06:17:22;;;;;;;19.60;6.95;;;15.50;99.90;;;;;;6267336;28;20068;-81
2022/09/12 06:20:23;;;;;;;8.43;5.03;;;15.70;99.90;;;;;;6264231;28;20409;-81
2022/09/12 06:23:25;;;;;;;12.80;5.88;;;15.90;99.90;;;;;;6260856;28;20051;-82
2022/09/12 06:26:28;;;;;;;7.55;4.68;;;16.10;99.90;;;;;;6260946;28;20053;-81
2022/09/12 06:29:31;;;;;;;8.82;5.03;;;16.40;99.90;;;;;;6261339;28;20053;-82
2022/09/12 06:32:33;;;;;;;10.10;5.03;;;16.60;99.90;;;;;;6260103;28;20055;-81
2022/09/12 06:35:36;;;;;;;10.35;5.75;;;16.70;99.90;;;;;;6259734;28;20128;-81
2022/09/12 06:38:38;;;;;;;12.32;6.53;;;17.00;99.90;;;;;;6260030;28;20052;-81
2022/09/12 06:41:41;;;;;;;17.08;6.65;;;17.20;99.90;;;;;;6264704;28;20517;-82
2022/09/12 06:44:43;;;;;;;15.00;6.60;;;17.40;99.90;;;;;;6262407;28;20045;-82
2022/09/12 06:47:45;;;;;;;17.15;9.40;;;17.60;99.90;;;;;;6260174;28;20065;-83
2022/09/12 06:50:56;;;;;;;8.93;6.03;;;17.90;99.90;;;;;;6264268;28;20518;-83
2022/09/12 06:53:58;;;;;;;12.05;6.45;;;18.20;99.90;;;;;;6262348;28;20045;-80
2022/09/12 06:57:01;;;;;;;10.40;5.30;;;18.40;99.90;;;;;;6265826;28;20045;-80
2022/09/12 07:00:04;;;;;;;10.27;4.80;;;18.80;99.90;;;;;;6264874;28;20049;-81
2022/09/12 07:03:06;;;;;;;11.48;7.22;;;19.10;99.60;;;;;;6264548;28;20042;-82
2022/09/12 07:06:10;;;;;;;9.35;6.65;;;19.50;99.00;;;;;;6267204;28;20065;-82
2022/09/12 07:09:15;;;;;;;6.72;4.93;;;19.90;98.30;;;;;;6264950;28;20049;-81
2022/09/12 07:12:18;;;;;;;9.00;6.35;;;20.30;97.60;;;;;;6262776;28;20095;-81
2022/09/12 07:15:19;;;;;;;7.78;6.05;;;20.80;96.70;;;;;;6264685;28;20392;-81
2022/09/12 07:18:22;;;;;;;11.13;4.80;;;21.40;95.50;;;;;;6263195;28;20415;-81
2022/09/12 07:21:24;;;;;;;8.30;4.70;;;22.30;94.40;;;;;;6260245;28;20053;-81
2022/09/12 07:24:25;;;;;;;8.18;5.50;;;23.40;92.00;;;;;;6266163;28;20045;-82
2022/09/12 07:27:29;;;;;;;11.05;6.03;;;24.60;88.50;;;;;;6265472;28;20075;-82
2022/09/12 07:30:30;;;;;;;8.65;4.47;;;26.20;82.00;;;;;;6264957;28;20114;-82
2022/09/12 07:33:32;;;;;;;8.88;4.78;;;27.80;74.40;;;;;;6263203;28;20047;-83
2022/09/12 07:36:34;;;;;;;7.07;4.60;;;29.00;67.20;;;;;;6264254;28;20050;-82
2022/09/12 07:39:36;;;;;;;8.85;5.05;;;29.60;64.50;;;;;;6263860;28;20049;-82
2022/09/12 07:42:39;;;;;;;6.97;4.68;;;29.90;62.30;;;;;;6264073;28;20045;-82
2022/09/12 07:45:42;;;;;;;8.25;4.13;;;30.30;60.50;;;;;;6263203;28;20053;-82
2022/09/12 07:48:44;;;;;;;5.72;4.57;;;30.90;58.80;;;;;;6262536;28;20048;-83
2022/09/12 07:51:46;;;;;;;10.13;4.18;;;31.30;57.20;;;;;;6263080;28;20092;-82
2022/09/12 07:54:47;;;;;;;6.22;3.40;;;31.40;55.60;;;;;;6262885;28;20415;-82
2022/09/12 07:57:50;;;;;;;6.55;4.03;;;31.40;54.20;;;;;;6262971;28;20132;-82
2022/09/12 08:00:52;;;;;;;5.32;3.28;;;31.00;54.10;;;;;;6262826;28;20398;-83
2022/09/12 08:03:56;;;;;;;5.43;3.20;;;30.40;55.00;;;;;;6262896;28;20053;-82
2022/09/12 08:06:58;;;;;;;6.35;3.35;;;30.10;55.40;;;;;;6265182;28;20049;-82
2022/09/12 08:10:00;;;;;;;4.57;3.80;;;29.90;55.60;;;;;;6261579;28;20048;-82
2022/09/12 08:13:03;;;;;;;6.00;3.70;;;29.50;56.00;;;;;;6248257;28;20050;-82
2022/09/12 08:16:06;;;;;;;6.63;3.92;;;29.10;57.30;;;;;;6252190;28;20050;-83
2022/09/12 08:19:08;;;;;;;11.20;5.22;;;28.70;58.30;;;;;;6258984;28;20498;-83
2022/09/12 08:22:10;;;;;;;7.30;5.47;;;28.30;59.10;;;;;;6260296;28;20045;-83
2022/09/12 08:25:12;;;;;;;4.78;4.07;;;28.00;59.50;;;;;;6257825;28;20049;-83
2022/09/12 08:28:15;;;;;;;6.22;4.28;;;27.70;60.20;;;;;;6257648;28;20053;-83
2022/09/12 08:31:18;;;;;;;9.18;4.47;;;27.70;60.60;;;;;;6256824;28;20054;-83
2022/09/12 08:34:20;;;;;;;9.05;4.55;;;27.80;60.30;;;;;;6250958;28;20053;-83
2022/09/12 08:37:22;;;;;;;6.47;3.95;;;28.00;59.50;;;;;;6257100;28;20049;-82
2022/09/12 08:40:23;;;;;;;10.68;4.75;;;28.30;59.30;;;;;;6256505;28;20056;-83
2022/09/12 08:43:40;;;;;;;9.40;4.57;;;28.80;58.20;;;;;;6259163;28;20045;-83
2022/09/12 08:46:50;;;;;;;6.65;4.25;;;29.20;57.30;;;;;;6260392;28;20064;-83
2022/09/12 08:50:02;;;;;;;7.88;4.57;;;29.40;56.50;;;;;;6259837;28;20049;-82
2022/09/12 08:53:13;;;;;;;7.30;3.38;;;29.60;56.10;;;;;;6259372;28;20092;-82
2022/09/12 08:56:15;;;;;;;5.55;4.07;;;29.80;55.90;;;;;;6258879;28;20403;-82
2022/09/12 08:59:18;;;;;;;7.63;4.65;;;29.80;55.60;;;;;;6253627;28;20053;-83
2022/09/12 09:02:46;;;;;;;10.35;4.20;;;29.70;55.70;;;;;;6255728;28;20046;-83
2022/09/12 09:05:57;;;;;;;7.75;4.30;;;29.30;56.50;;;;;;6259156;28;20514;-83
2022/09/12 09:09:06;;;;;;;9.02;4.32;;;28.90;57.40;;;;;;6256736;28;20056;-83
2022/09/12 09:12:15;;;;;;;6.43;4.20;;;28.70;58.30;;;;;;6257261;28;20049;-82
2022/09/12 09:15:31;;;;;;;8.20;5.72;;;28.40;58.20;;;;;;6260916;28;20065;-81
2022/09/12 09:18:35;;;;;;;12.00;3.78;;;28.00;59.30;;;;;;6260286;28;20059;-83
2022/09/12 09:21:41;;;;;;;13.00;3.60;;;27.80;60.10;;;;;;6260896;28;20053;-82
2022/09/12 09:24:49;;;;;;;13.45;3.88;;;27.80;60.10;;;;;;6261397;28;20042;-82
2022/09/12 09:27:57;;;;;;;7.55;3.28;;;27.80;59.90;;;;;;6261666;28;20049;-82
2022/09/12 09:31:01;;;;;;;12.70;3.70;;;27.70;59.20;;;;;;6260879;28;20057;-83
2022/09/12 09:34:13;;;;;;;7.07;2.80;;;27.60;59.60;;;;;;6260677;28;20049;-82
2022/09/12 09:37:19;;;;;;;7.07;3.22;;;27.60;59.90;;;;;;6237528;28;20057;-81
2022/09/12 09:40:27;;;;;;;4.07;3.22;;;27.90;59.00;;;;;;6237783;28;20050;-83
2022/09/12 09:43:28;;;;;;;5.72;2.72;;;28.20;58.30;;;;;;6237574;28;20057;-82
2022/09/12 09:46:32;;;;;;;5.55;3.05;;;28.30;57.90;;;;;;6236850;28;20041;-82
2022/09/12 09:49:35;;;;;;;5.97;2.85;;;28.20;58.60;;;;;;6236813;28;20045;-82
2022/09/12 09:52:38;;;;;;;6.03;2.88;;;28.20;58.50;;;;;;6236713;28;20061;-83
2022/09/12 09:55:42;;;;;;;6.93;2.72;;;28.30;58.50;;;;;;6237415;28;20510;-82
2022/09/12 09:58:44;;;;;;;6.30;2.70;;;28.40;58.70;;;;;;6235243;28;20069;-82
2022/09/12 10:01:53;;;;;;;4.60;2.38;;;28.60;58.60;;;;;;6236014;28;20053;-82
2022/09/12 10:04:57;;;;;;;7.00;2.60;;;28.70;57.50;;;;;;6235426;28;20048;-83
2022/09/12 10:07:59;;;;;;;3.78;2.33;;;28.90;57.00;;;;;;6236500;28;20320;-83
2022/09/12 10:11:03;;;;;;;3.60;2.35;;;29.00;57.20;;;;;;6236570;28;20061;-82
2022/09/12 10:14:05;;;;;;;3.50;2.35;;;29.10;57.00;;;;;;6243290;28;20042;-83
2022/09/12 10:17:28;;;;;;;7.57;2.55;;;29.40;56.30;;;;;;6236876;28;20046;-83
2022/09/12 10:20:32;;;;;;;5.18;1.83;;;29.70;55.00;;;;;;6237226;28;20101;-83
2022/09/12 10:23:36;;;;;;;4.32;1.77;;;29.80;54.80;;;;;;6237216;28;20046;-83
2022/09/12 10:26:40;;;;;;;3.90;2.33;;;29.90;54.50;;;;;;6237867;28;20046;-82
2022/09/12 10:29:47;;;;;;;5.47;1.80;;;30.10;54.00;;;;;;6237463;28;20045;-83
2022/09/12 10:32:51;;;;;;;2.57;1.70;;;30.10;54.00;;;;;;6236765;28;20049;-83
2022/09/12 10:35:54;;;;;;;6.55;1.70;;;30.30;54.00;;;;;;6233368;28;20077;-82
2022/09/12 10:38:59;;;;;;;8.20;2.00;;;30.50;53.40;;;;;;6227479;28;20045;-82
2022/09/12 10:42:01;;;;;;;6.30;2.58;;;30.70;52.80;;;;;;6228311;28;20050;-82
2022/09/12 10:45:03;;;;;;;3.67;1.90;;;31.00;52.30;;;;;;6228092;28;20042;-82
2022/09/12 10:48:27;;;;;;;3.38;1.83;;;31.40;51.70;;;;;;6229618;28;20054;-82
2022/09/12 10:51:29;;;;;;;5.20;1.55;;;31.60;51.00;;;;;;6232608;28;20103;-82
2022/09/12 10:54:30;;;;;;;2.45;1.58;;;31.80;50.50;;;;;;6232529;28;20042;-82
2022/09/12 10:57:53;;;;;;;6.28;2.10;;;31.80;50.60;;;;;;6233290;28;20050;-83
2022/09/12 11:01:04;;;;;;;3.25;1.83;;;32.00;49.90;;;;;;6250017;28;20057;-83
2022/09/12 11:04:38;;;;;;;3.15;1.67;;;32.20;49.90;;;;;;6264503;28;20073;-82
2022/09/12 11:07:45;;;;;;;2.72;1.65;;;32.40;49.60;;;;;;6251243;28;20061;-82
2022/09/12 11:10:55;;;;;;;4.55;1.48;;;32.60;49.70;;;;;;6241553;28;20050;-83
2022/09/12 11:14:12;;;;;;;2.30;1.10;;;32.70;48.90;;;;;;6253935;28;20134;-84
2022/09/12 11:17:25;;;;;;;3.17;1.42;;;32.70;48.70;;;;;;6250653;28;20048;-82
2022/09/12 11:20:53;;;;;;;2.33;1.35;;;32.90;48.90;;;;;;6259342;28;20057;-83
2022/09/12 11:24:18;;;;;;;4.10;1.98;;;33.30;48.30;;;;;;6239563;28;20053;-83
2022/09/12 11:27:35;;;;;;;2.22;1.02;;;33.50;47.40;;;;;;6259003;28;20050;-83
2022/09/12 11:30:41;;;;;;;3.08;1.30;;;33.70;46.80;;;;;;6265698;28;20053;-84
2022/09/12 11:33:44;;;;;;;2.20;1.30;;;33.80;46.00;;;;;;6261199;28;20048;-83
2022/09/12 11:37:00;;;;;;;3.92;1.13;;;33.80;46.00;;;;;;6263493;28;20048;-83
2022/09/12 11:40:23;;;;;;;1.40;1.10;;;33.50;46.30;;;;;;6262393;28;20495;-84
2022/09/12 11:43:34;;;;;;;1.75;1.25;;;33.60;46.30;;;;;;6263909;28;20046;-84
2022/09/12 11:46:37;;;;;;;2.65;1.02;;;33.60;45.90;;;;;;6262279;28;20060;-85
2022/09/12 11:49:43;;;;;;;2.20;1.25;;;33.80;45.90;;;;;;6265136;28;20060;-84
2022/09/12 11:52:46;;;;;;;2.40;1.60;;;34.00;44.70;;;;;;6266064;28;20041;-83
2022/09/12 11:55:54;;;;;;;2.20;1.10;;;34.00;45.00;;;;;;6264997;28;20061;-84
2022/09/12 11:59:02;;;;;;;1.30;1.20;;;34.00;44.70;;;;;;6265640;28;20046;-84
2022/09/12 12:02:10;;;;;;;5.45;1.30;;;34.10;44.60;;;;;;6264617;28;20095;-84
2022/09/12 12:05:22;;;;;;;4.18;0.82;;;34.40;44.40;;;;;;6266397;28;20049;-85
2022/09/12 12:08:27;;;;;;;3.97;1.42;;;34.50;44.20;;;;;;6267952;28;20049;-85
2022/09/12 12:11:33;;;;;;;2.03;1.00;;;34.60;43.90;;;;;;6266847;28;20049;-84
2022/09/12 12:14:42;;;;;;;1.50;0.90;;;34.90;43.10;;;;;;6261290;28;20139;-84
2022/09/12 12:17:44;;;;;;;5.65;1.13;;;34.70;43.50;;;;;;6261602;28;20045;-84
2022/09/12 12:20:46;;;;;;;1.08;0.88;;;34.90;43.30;;;;;;6259550;28;20052;-83
2022/09/12 12:24:12;;;;;;;4.00;1.00;;;35.10;42.70;;;;;;6260796;28;20049;-82
2022/09/12 12:27:24;;;;;;;2.45;0.85;;;35.20;42.50;;;;;;6256234;28;20056;-82
2022/09/12 12:31:00;;;;;;;3.03;0.98;;;35.30;42.50;;;;;;6254866;28;20060;-82
2022/09/12 12:34:25;;;;;;;1.63;0.60;;;35.50;42.10;;;;;;6253520;28;20414;-82
2022/09/12 12:37:52;;;;;;;4.28;1.00;;;35.60;42.10;;;;;;6256515;28;20056;-82
2022/09/12 12:41:34;;;;;;;2.85;1.02;;;35.70;42.20;;;;;;6254703;28;20140;-83
2022/09/12 12:44:53;;;;;;;3.03;1.10;;;35.80;42.00;;;;;;6253383;28;20045;-82
2022/09/12 12:47:59;;;;;;;2.25;0.60;;;36.00;41.60;;;;;;6253117;28;20057;-82
2022/09/12 12:51:31;;;;;;;2.10;0.85;;;36.20;40.70;;;;;;6254282;28;20049;-82
2022/09/12 12:54:50;;;;;;;0.75;0.73;;;36.40;40.20;;;;;;6254452;28;20037;-83
2022/09/12 12:57:55;;;;;;;1.50;0.60;;;36.40;39.30;;;;;;6256799;28;20049;-83
2022/09/12 13:01:11;;;;;;;3.97;0.90;;;36.50;40.10;;;;;;6253997;28;20133;-83
2022/09/12 13:04:15;;;;;;;2.67;0.80;;;36.50;39.60;;;;;;6255771;28;20041;-83
2022/09/12 13:07:34;;;;;;;2.75;0.80;;;36.80;39.30;;;;;;6256153;28;20544;-83
2022/09/12 13:10:37;;;;;;;0.93;0.60;;;36.90;39.00;;;;;;6254620;28;20049;-82
2022/09/12 13:13:47;;;;;;;3.78;0.90;;;37.10;39.10;;;;;;6255764;28;20422;-83
2022/09/12 13:16:54;;;;;;;3.67;0.70;;;37.10;38.70;;;;;;6243445;28;20045;-82
2022/09/12 13:20:06;;;;;;;1.48;0.70;;;36.70;38.30;;;;;;6253219;28;20068;-83
2022/09/12 13:23:21;;;;;;;2.03;0.80;;;36.40;39.50;;;;;;6225535;28;20056;-83
2022/09/12 13:26:25;;;;;;;5.60;0.80;;;36.40;38.90;;;;;;6227030;28;20050;-83
2022/09/12 13:29:28;;;;;;;1.52;0.80;;;36.60;39.30;;;;;;6226942;28;20080;-84
2022/09/12 13:32:30;;;;;;;3.08;0.60;;;36.80;38.50;;;;;;6227626;28;20080;-83
2022/09/12 13:35:42;;;;;;;1.67;0.63;;;36.70;38.40;;;;;;6228282;28;20405;-83
2022/09/12 13:38:55;;;;;;;1.13;0.63;;;36.70;38.80;;;;;;6227843;28;20052;-83
2022/09/12 13:42:34;;;;;;;2.33;0.65;;;36.80;38.00;;;;;;6229905;28;20045;-83
2022/09/12 13:45:39;;;;;;;0.80;0.50;;;36.90;38.10;;;;;;6224343;28;20514;-83
2022/09/12 13:48:41;;;;;;;2.47;0.70;;;37.00;38.10;;;;;;6245336;28;20411;-84
2022/09/12 13:51:43;;;;;;;2.55;0.60;;;37.00;37.60;;;;;;6249393;28;20053;-84
2022/09/12 13:54:49;;;;;;;3.05;0.77;;;37.00;37.70;;;;;;6248607;28;20048;-84
2022/09/12 13:57:57;;;;;;;2.00;0.90;;;37.00;37.20;;;;;;6249695;28;20060;-83
2022/09/12 14:01:06;;;;;;;0.80;0.60;;;37.00;37.40;;;;;;6249673;28;20076;-83
2022/09/12 14:07:40;;;;;;;1.30;0.45;;;36.80;37.20;;;;;;6249901;28;20071;-83
2022/09/12 14:10:43;;;;;;;3.97;0.60;;;36.60;37.30;;;;;;6254948;28;20049;-83
2022/09/12 14:13:47;;;;;;;5.05;0.80;;;36.60;37.60;;;;;;6258008;28;20046;-83
2022/09/12 14:16:52;;;;;;;2.08;0.40;;;36.50;37.60;;;;;;6256218;28;20076;-82
2022/09/12 14:19:56;;;;;;;1.38;0.63;;;36.40;37.30;;;;;;6254966;28;20093;-83
2022/09/12 14:23:00;;;;;;;0.88;0.40;;;36.50;37.50;;;;;;6252131;28;20065;-83
2022/09/12 14:26:07;;;;;;;1.02;0.50;;;36.60;36.90;;;;;;6252862;28;20049;-83
2022/09/12 14:29:11;;;;;;;1.05;0.60;;;36.70;37.40;;;;;;6251458;28;20077;-83
2022/09/12 14:32:22;;;;;;;3.28;0.95;;;36.60;36.90;;;;;;6252823;28;20057;-83
2022/09/12 14:35:24;;;;;;;1.80;0.60;;;36.40;37.00;;;;;;6251897;28;20046;-82
2022/09/12 14:38:37;;;;;;;0.68;0.38;;;36.40;36.80;;;;;;6252062;28;20045;-83
2022/09/12 14:41:41;;;;;;;2.78;0.88;;;36.30;36.80;;;;;;6252684;28;20049;-83
2022/09/12 14:44:53;;;;;;;0.80;0.60;;;36.20;37.00;;;;;;6255211;28;20048;-83
2022/09/12 14:47:58;;;;;;;1.88;0.70;;;36.10;37.20;;;;;;6247171;28;20041;-83
2022/09/12 14:51:00;;;;;;;3.28;0.43;;;36.00;37.20;;;;;;6251107;28;20056;-83
2022/09/12 14:54:02;;;;;;;1.52;0.80;;;35.90;37.40;;;;;;6251000;28;20446;-83
2022/09/12 14:57:06;;;;;;;2.78;0.50;;;35.80;37.20;;;;;;6251342;28;20038;-83
2022/09/12 15:00:23;;;;;;;1.17;0.40;;;35.80;37.30;;;;;;6251956;28;20049;-83
2022/09/12 15:03:29;;;;;;;1.83;0.50;;;35.70;37.20;;;;;;6252207;28;20107;-83
2022/09/12 15:06:35;;;;;;;1.43;0.63;;;35.40;37.20;;;;;;6252532;28;20105;-83
2022/09/12 15:09:37;;;;;;;2.38;0.60;;;35.10;37.50;;;;;;6250700;28;20045;-83
2022/09/12 15:12:38;;;;;;;1.70;0.70;;;34.70;37.50;;;;;;6251342;28;20444;-83
2022/09/12 15:15:42;;;;;;;2.15;0.60;;;34.30;37.80;;;;;;6253004;28;20045;-83
2022/09/12 15:18:45;;;;;;;0.98;0.60;;;33.80;38.80;;;;;;6248624;28;20368;-82
2022/09/12 15:21:46;;;;;;;1.08;0.65;;;33.20;39.40;;;;;;6251971;28;20045;-83
2022/09/12 15:24:48;;;;;;;1.27;0.55;;;32.80;40.10;;;;;;6250993;28;20511;-83
2022/09/12 15:27:52;;;;;;;0.63;0.57;;;32.40;40.00;;;;;;6251004;28;20053;-82
2022/09/12 15:30:56;;;;;;;3.00;2.30;;;32.10;40.60;;;;;;6251560;28;20050;-83
2022/09/12 15:34:01;;;;;;;1.13;0.80;;;31.70;40.80;;;;;;6251897;28;20057;-82
2022/09/12 15:37:05;;;;;;;1.58;0.70;;;31.50;41.70;;;;;;6251487;28;20503;-83
2022/09/12 15:40:09;;;;;;;3.92;0.85;;;31.30;42.00;;;;;;6252203;28;20054;-84
2022/09/12 15:43:12;;;;;;;0.98;0.60;;;31.00;42.50;;;;;;6250411;28;20052;-83
2022/09/12 15:46:15;;;;;;;2.03;0.88;;;30.70;43.00;;;;;;6250390;28;20103;-82
2022/09/12 15:49:18;;;;;;;1.45;1.00;;;30.40;43.40;;;;;;6251451;28;20049;-83
2022/09/12 15:52:20;;;;;;;1.90;1.42;;;30.20;43.90;;;;;;6250865;28;20057;-83
2022/09/12 15:55:23;;;;;;;6.72;0.88;;;30.00;44.10;;;;;;6254738;28;20050;-83
2022/09/12 15:58:25;;;;;;;1.63;0.90;;;29.80;44.20;;;;;;6285274;23;20049;-79
2022/09/12 16:01:28;;;;;;;3.47;1.10;;;29.50;44.70;;;;;;6302630;28;20055;-81
2022/09/12 16:04:31;;;;;;;2.65;0.70;;;29.40;45.00;;;;;;6304963;28;20048;-83
2022/09/12 16:07:33;;;;;;;0.85;0.65;;;29.30;45.40;;;;;;6306283;28;20064;-80